createdAt,value
2022-10-19T00:00:47.863Z,6.15
2022-10-19T00:03:18.234Z,6.40
2022-10-19T00:05:47.502Z,6.25
2022-10-19T00:08:14.156Z,6.57
2022-10-19T00:10:41.678Z,6.28
2022-10-19T00:13:08.380Z,6.85
2022-10-19T00:15:39.367Z,7.30
2022-10-19T00:18:06.647Z,7.00
2022-10-19T00:20:34.473Z,7.53
2022-10-19T00:23:01.516Z,8.00
2022-10-19T00:25:28.880Z,7.90
2022-10-19T00:27:55.646Z,6.70
2022-10-19T00:30:22.464Z,6.38
2022-10-19T00:32:49.214Z,8.02
2022-10-19T00:35:15.898Z,7.82
2022-10-19T00:37:42.733Z,6.72
2022-10-19T00:40:09.942Z,7.13
2022-10-19T00:42:36.707Z,7.03
2022-10-19T00:45:13.789Z,8.27
2022-10-19T00:47:42.590Z,7.05
2022-10-19T00:52:37.122Z,5.88
2022-10-19T00:55:04.539Z,6.15
2022-10-19T00:57:32.086Z,6.05
2022-10-19T01:00:02.321Z,6.07
2022-10-19T01:02:29.066Z,5.85
2022-10-19T01:04:56.188Z,5.70
2022-10-19T01:07:24.751Z,6.57
2022-10-19T01:09:51.674Z,5.88
2022-10-19T01:12:26.974Z,5.13
2022-10-19T01:15:31.853Z,5.60
2022-10-19T01:18:31.998Z,5.82
2022-10-19T01:21:19.659Z,5.65
2022-10-19T01:24:07.857Z,5.53
2022-10-19T01:26:55.578Z,6.00
2022-10-19T01:29:22.256Z,5.93
2022-10-19T01:31:52.402Z,6.57
2022-10-19T01:34:32.618Z,5.90
2022-10-19T01:37:23.369Z,6.60
2022-10-19T01:40:07.859Z,5.70
2022-10-19T01:43:20.041Z,6.30
2022-10-19T01:45:55.496Z,6.57
2022-10-19T01:48:35.538Z,5.45
2022-10-19T01:51:07.583Z,6.35
2022-10-19T01:53:41.618Z,5.93
2022-10-19T01:56:09.628Z,5.90
2022-10-19T01:58:38.263Z,5.53
2022-10-19T02:01:09.157Z,6.22
2022-10-19T02:03:37.547Z,5.93
2022-10-19T02:06:07.208Z,6.05
2022-10-19T02:08:52.047Z,5.20
2022-10-19T02:11:20.263Z,5.63
2022-10-19T02:13:51.276Z,5.43
2022-10-19T02:16:26.865Z,5.60
2022-10-19T02:18:55.984Z,5.47
2022-10-19T02:21:23.081Z,5.13
2022-10-19T02:23:53.389Z,5.30
2022-10-19T02:26:21.881Z,5.35
2022-10-19T02:28:49.389Z,6.60
2022-10-19T02:31:16.201Z,7.05
2022-10-19T02:33:43.082Z,6.53
2022-10-19T02:36:09.746Z,6.35
2022-10-19T02:38:36.475Z,6.97
2022-10-19T02:41:13.868Z,6.70
2022-10-19T02:43:44.607Z,7.25
2022-10-19T02:46:18.683Z,6.93
2022-10-19T02:48:46.625Z,7.35
2022-10-19T02:51:36.610Z,6.37
2022-10-19T02:54:05.448Z,7.38
2022-10-19T02:56:33.011Z,6.57
2022-10-19T02:58:59.677Z,7.30
2022-10-19T03:01:26.642Z,7.22
2022-10-19T03:03:53.317Z,6.30
2022-10-19T03:06:20.025Z,6.90
2022-10-19T03:08:46.960Z,6.97
2022-10-19T03:11:13.647Z,7.65
2022-10-19T03:13:41.547Z,6.85
2022-10-19T03:16:12.770Z,6.70
2022-10-19T03:18:40.428Z,6.28
2022-10-19T03:21:11.914Z,6.47
2022-10-19T03:23:39.583Z,6.00
2022-10-19T03:26:11.393Z,6.82
2022-10-19T03:28:39.114Z,7.10
2022-10-19T03:31:06.074Z,6.15
2022-10-19T03:33:32.802Z,6.85
2022-10-19T03:36:25.089Z,6.65
2022-10-19T03:38:53.918Z,6.10
2022-10-19T03:43:48.258Z,6.53
2022-10-19T03:46:15.532Z,6.82
2022-10-19T03:48:42.672Z,6.93
2022-10-19T03:51:18.375Z,6.70
2022-10-19T03:53:46.777Z,6.97
2022-10-19T03:56:19.165Z,7.32
2022-10-19T03:58:48.053Z,6.70
2022-10-19T04:01:17.731Z,6.88
2022-10-19T04:03:44.553Z,7.07
2022-10-19T04:06:19.603Z,7.55
2022-10-19T04:08:49.869Z,6.78
2022-10-19T04:11:19.070Z,6.50
2022-10-19T04:13:49.288Z,7.50
2022-10-19T04:16:16.214Z,6.72
2022-10-19T04:18:43.190Z,7.03
2022-10-19T04:21:44.106Z,6.90
2022-10-19T04:24:15.705Z,7.35
2022-10-19T04:26:44.832Z,6.38
2022-10-19T04:29:12.425Z,5.95
2022-10-19T04:31:39.709Z,6.47
2022-10-19T04:34:07.352Z,7.28
2022-10-19T04:36:34.119Z,6.35
2022-10-19T04:39:00.831Z,6.85
2022-10-19T04:41:27.544Z,6.15
2022-10-19T04:43:59.566Z,6.60
2022-10-19T04:46:27.372Z,6.50
2022-10-19T04:48:54.847Z,6.72
2022-10-19T04:51:22.915Z,6.05
2022-10-19T04:53:51.569Z,6.70
2022-10-19T04:56:26.354Z,5.93
2022-10-19T04:58:56.533Z,6.40
2022-10-19T05:01:24.020Z,5.40
2022-10-19T05:06:27.213Z,5.63
2022-10-19T05:08:54.023Z,5.38
2022-10-19T05:11:21.215Z,5.40
2022-10-19T05:13:48.567Z,4.93
2022-10-19T05:16:19.078Z,5.00
2022-10-19T05:18:56.704Z,4.68
2022-10-19T05:21:23.555Z,5.10
2022-10-19T05:23:54.994Z,4.10
2022-10-19T05:26:24.003Z,4.93
2022-10-19T05:28:56.549Z,5.13
2022-10-19T05:31:26.320Z,4.15
2022-10-19T05:33:53.360Z,4.78
2022-10-19T05:36:29.304Z,4.85
2022-10-19T05:38:57.481Z,4.68
2022-10-19T05:41:25.967Z,4.75
2022-10-19T05:43:58.448Z,4.93
2022-10-19T05:46:26.520Z,4.47
2022-10-19T05:48:56.637Z,4.90
2022-10-19T05:51:24.974Z,5.07
2022-10-19T05:53:53.517Z,4.28
2022-10-19T05:56:23.212Z,4.60
2022-10-19T05:58:50.596Z,4.68
2022-10-19T06:01:21.634Z,4.90
2022-10-19T06:03:52.176Z,5.18
2022-10-19T06:06:19.040Z,4.90
2022-10-19T06:08:46.315Z,5.00
2022-10-19T06:11:15.653Z,4.88
2022-10-19T06:13:43.791Z,4.90
2022-10-19T06:16:12.083Z,5.47
2022-10-19T06:18:39.747Z,5.60
2022-10-19T06:21:08.807Z,5.45
2022-10-19T06:23:35.683Z,5.32
2022-10-19T06:26:05.210Z,6.22
2022-10-19T06:28:33.447Z,6.03
2022-10-19T06:31:00.821Z,5.93
2022-10-19T06:33:29.956Z,5.75
2022-10-19T06:36:05.972Z,6.88
2022-10-19T06:38:32.712Z,6.28
2022-10-19T06:40:59.759Z,6.78
2022-10-19T06:43:26.584Z,6.32
2022-10-19T06:45:53.616Z,6.28
2022-10-19T06:48:20.440Z,6.70
2022-10-19T06:50:47.098Z,6.18
2022-10-19T06:53:13.803Z,6.00
2022-10-19T06:55:40.473Z,5.70
2022-10-19T06:58:07.092Z,6.72
2022-10-19T07:00:33.865Z,7.13
2022-10-19T07:03:01.058Z,10.95
2022-10-19T07:05:28.795Z,12.77
2022-10-19T07:07:57.837Z,11.07
2022-10-19T07:10:24.680Z,7.80
2022-10-19T07:12:52.413Z,7.75
2022-10-19T07:15:19.137Z,10.80
2022-10-19T07:17:45.908Z,11.02
2022-10-19T07:20:13.099Z,10.65
2022-10-19T07:22:39.731Z,9.68
2022-10-19T07:25:06.695Z,7.90
2022-10-19T07:27:37.827Z,6.93
2022-10-19T07:30:04.918Z,7.55
2022-10-19T07:32:31.624Z,6.10
2022-10-19T07:34:58.247Z,6.10
2022-10-19T07:37:24.933Z,5.88
2022-10-19T07:39:51.556Z,6.30
2022-10-19T07:42:18.309Z,6.38
2022-10-19T07:44:44.999Z,7.22
2022-10-19T07:47:11.663Z,6.55
2022-10-19T07:49:38.394Z,6.35
2022-10-19T07:52:05.442Z,7.00
2022-10-19T07:54:32.107Z,7.53
2022-10-19T07:56:58.798Z,7.32
2022-10-19T07:59:25.516Z,7.13
2022-10-19T08:01:53.652Z,6.70
2022-10-19T08:07:07.066Z,7.13
2022-10-19T08:09:51.948Z,6.53
2022-10-19T08:12:19.236Z,5.90
2022-10-19T08:14:47.933Z,6.25
2022-10-19T08:17:17.579Z,6.03
2022-10-19T08:19:46.012Z,5.15
2022-10-19T08:22:12.856Z,5.68
2022-10-19T08:24:39.576Z,6.47
2022-10-19T08:27:06.392Z,6.57
2022-10-19T08:29:34.099Z,6.00
2022-10-19T08:32:00.865Z,5.28
2022-10-19T08:34:27.576Z,5.68
2022-10-19T08:36:54.214Z,5.40
2022-10-19T08:39:20.995Z,5.45
2022-10-19T08:42:19.817Z,5.25
2022-10-19T08:45:07.618Z,4.30
2022-10-19T08:47:55.341Z,5.20
2022-10-19T08:50:25.733Z,4.23
2022-10-19T08:53:02.341Z,4.18
2022-10-19T08:55:54.028Z,4.75
2022-10-19T08:58:46.154Z,5.18
2022-10-19T09:01:27.302Z,6.00
2022-10-19T09:04:01.073Z,5.50
2022-10-19T09:06:31.982Z,5.68
2022-10-19T09:08:59.216Z,5.75
2022-10-19T09:11:31.878Z,5.82
2022-10-19T09:14:08.306Z,4.47
2022-10-19T09:16:35.200Z,4.55
2022-10-19T09:19:03.810Z,4.20
2022-10-19T09:21:47.598Z,4.32
2022-10-19T09:24:32.097Z,4.45
2022-10-19T09:27:02.456Z,4.10
2022-10-19T09:29:46.584Z,3.83
2022-10-19T09:32:24.445Z,4.40
2022-10-19T09:34:57.638Z,3.85
2022-10-19T09:37:26.566Z,4.20
2022-10-19T09:39:55.611Z,4.10
2022-10-19T09:42:30.485Z,3.97
2022-10-19T09:44:59.290Z,3.88
2022-10-19T09:50:34.676Z,3.80
2022-10-19T09:53:05.228Z,3.55
2022-10-19T09:55:44.925Z,3.63
2022-10-19T09:58:14.826Z,3.42
2022-10-19T10:00:44.387Z,3.00
2022-10-19T10:03:29.030Z,2.92
2022-10-19T10:06:04.684Z,2.10
2022-10-19T10:08:35.720Z,2.30
2022-10-19T10:11:14.111Z,2.28
2022-10-19T10:13:49.130Z,3.13
2022-10-19T10:16:20.066Z,2.20
2022-10-19T10:19:04.110Z,2.42
2022-10-19T10:21:35.527Z,2.42
2022-10-19T10:24:28.864Z,2.25
2022-10-19T10:27:01.462Z,1.85
2022-10-19T10:29:34.832Z,2.13
2022-10-19T10:32:18.957Z,2.55
2022-10-19T10:35:00.969Z,2.13
2022-10-19T10:37:46.572Z,1.70
2022-10-19T10:40:23.652Z,1.75
2022-10-19T10:42:53.638Z,1.60
2022-10-19T10:45:29.119Z,2.03
2022-10-19T10:47:58.034Z,1.40
2022-10-19T10:50:33.711Z,1.70
2022-10-19T10:53:07.457Z,1.58
2022-10-19T10:55:34.961Z,1.48
2022-10-19T10:58:29.599Z,1.70
2022-10-19T11:01:01.917Z,1.45
2022-10-19T11:03:32.776Z,1.80
2022-10-19T11:08:29.694Z,1.42
2022-10-19T11:11:01.852Z,1.05
2022-10-19T11:13:51.453Z,1.30
2022-10-19T11:16:21.844Z,1.50
2022-10-19T11:18:55.039Z,1.88
2022-10-19T11:21:32.945Z,1.15
2022-10-19T11:24:11.665Z,1.17
2022-10-19T11:26:57.039Z,1.50
2022-10-19T11:29:51.828Z,1.88
2022-10-19T11:32:34.552Z,1.65
2022-10-19T11:35:20.815Z,0.90
2022-10-19T11:38:18.408Z,1.05
2022-10-19T11:44:01.699Z,0.98
2022-10-19T11:46:52.402Z,1.17
2022-10-19T11:49:51.487Z,1.20
2022-10-19T11:52:35.832Z,1.20
2022-10-19T11:55:40.550Z,1.33
2022-10-19T11:58:49.483Z,1.33
2022-10-19T12:01:28.064Z,1.20
2022-10-19T12:06:49.874Z,1.60
2022-10-19T12:09:29.186Z,1.35
2022-10-19T12:12:08.152Z,1.00
2022-10-19T12:14:39.515Z,1.17
2022-10-19T12:17:10.761Z,1.10
2022-10-19T12:19:44.177Z,1.20
2022-10-19T12:22:18.370Z,1.10
2022-10-19T12:24:45.028Z,0.90
2022-10-19T12:27:15.076Z,1.10
2022-10-19T12:29:46.087Z,1.48
2022-10-19T12:32:21.030Z,1.10
2022-10-19T12:35:03.943Z,1.20
2022-10-19T12:37:45.073Z,1.20
2022-10-19T12:40:20.644Z,1.10
2022-10-19T12:43:12.759Z,1.33
2022-10-19T12:46:10.209Z,1.20
2022-10-19T12:48:39.146Z,1.40
2022-10-19T12:51:08.950Z,0.98
2022-10-19T12:53:45.401Z,1.15
2022-10-19T12:56:18.625Z,1.20
2022-10-19T12:58:48.307Z,0.93
2022-10-19T13:01:29.445Z,1.50
2022-10-19T13:04:25.041Z,1.02
2022-10-19T13:07:04.473Z,1.13
2022-10-19T13:09:43.545Z,1.42
2022-10-19T13:12:19.923Z,1.27
2022-10-19T13:14:54.452Z,1.35
2022-10-19T13:17:36.940Z,1.30
2022-10-19T13:20:15.683Z,1.67
2022-10-19T13:22:42.458Z,1.20
2022-10-19T13:25:27.841Z,1.17
2022-10-19T13:28:22.235Z,1.10
2022-10-19T13:30:49.056Z,1.08
2022-10-19T13:33:24.829Z,1.60
2022-10-19T13:36:00.489Z,1.50
2022-10-19T13:38:48.309Z,1.58
2022-10-19T13:41:44.035Z,1.58
2022-10-19T13:44:14.984Z,1.10
2022-10-19T13:47:04.806Z,1.10
2022-10-19T13:49:49.659Z,1.00
2022-10-19T13:52:22.461Z,1.48
2022-10-19T13:55:16.833Z,1.33
2022-10-19T13:58:22.573Z,1.67
2022-10-19T14:01:00.919Z,1.08
2022-10-19T14:03:51.424Z,1.17
2022-10-19T14:06:31.628Z,1.20
2022-10-19T14:09:16.829Z,0.98
2022-10-19T14:11:46.182Z,1.00
2022-10-19T14:14:19.713Z,0.90
2022-10-19T14:17:03.191Z,1.27
2022-10-19T14:19:43.411Z,1.65
2022-10-19T14:22:33.729Z,0.80
2022-10-19T14:25:18.133Z,0.98
2022-10-19T14:27:47.235Z,1.05
2022-10-19T14:30:32.248Z,1.20
2022-10-19T14:33:02.343Z,1.48
2022-10-19T14:35:41.235Z,0.95
2022-10-19T14:40:45.088Z,0.80
2022-10-19T14:43:35.063Z,0.95
2022-10-19T14:46:07.762Z,1.00
2022-10-19T14:48:36.157Z,1.20
2022-10-19T14:51:09.657Z,0.90
2022-10-19T14:53:47.667Z,1.27
2022-10-19T14:56:35.036Z,1.08
2022-10-19T14:59:23.816Z,0.90
2022-10-19T15:01:52.432Z,1.00
2022-10-19T15:06:47.556Z,0.88
2022-10-19T15:09:36.833Z,1.00
2022-10-19T15:12:14.667Z,1.05
2022-10-19T15:14:41.957Z,1.25
2022-10-19T15:17:29.685Z,1.08
2022-10-19T15:20:01.322Z,1.10
2022-10-19T15:22:31.095Z,1.50
2022-10-19T15:25:07.739Z,1.23
2022-10-19T15:27:36.783Z,1.10
2022-10-19T15:30:27.751Z,1.00
2022-10-19T15:33:00.358Z,1.40
2022-10-19T15:35:38.678Z,1.20
2022-10-19T15:38:15.154Z,1.08
2022-10-19T15:40:43.777Z,1.70
2022-10-19T15:46:06.998Z,1.38
2022-10-19T15:48:50.039Z,1.20
2022-10-19T15:51:25.364Z,1.20
2022-10-19T15:53:56.795Z,1.30
2022-10-19T15:56:24.921Z,1.45
2022-10-19T15:58:53.640Z,1.63
2022-10-19T16:01:29.366Z,2.35
2022-10-19T16:03:56.481Z,2.03
2022-10-19T16:06:26.355Z,1.85
2022-10-19T16:08:54.161Z,1.70
2022-10-19T16:11:23.213Z,1.50
2022-10-19T16:13:50.076Z,1.80
2022-10-19T16:16:23.510Z,1.73
2022-10-19T16:18:50.911Z,3.22
2022-10-19T16:21:19.620Z,2.10
2022-10-19T16:23:46.335Z,1.80
2022-10-19T16:26:16.715Z,2.20
2022-10-19T16:28:43.887Z,2.20
2022-10-19T16:31:10.913Z,2.42
2022-10-19T16:33:37.561Z,2.58
2022-10-19T16:36:06.039Z,3.00
2022-10-19T16:38:33.018Z,5.13
2022-10-19T16:41:01.583Z,3.03
2022-10-19T16:45:55.144Z,2.92
2022-10-19T16:48:24.168Z,2.53
2022-10-19T16:51:28.132Z,2.70
2022-10-19T16:53:59.716Z,2.80
2022-10-19T16:56:28.769Z,3.40
2022-10-19T16:58:58.084Z,2.85
2022-10-19T17:01:24.837Z,2.78
2022-10-19T17:03:51.713Z,3.15
2022-10-19T17:06:19.155Z,3.20
2022-10-19T17:11:36.248Z,3.35
2022-10-19T17:14:06.654Z,3.22
2022-10-19T17:16:35.396Z,3.22
2022-10-19T17:19:04.713Z,3.70
2022-10-19T17:21:34.220Z,3.75
2022-10-19T17:24:02.638Z,3.53
2022-10-19T17:26:36.851Z,3.42
2022-10-19T17:29:04.899Z,4.10
2022-10-19T17:31:32.075Z,4.03
2022-10-19T17:34:00.627Z,3.33
2022-10-19T17:36:29.328Z,4.38
2022-10-19T17:38:58.382Z,4.82
2022-10-19T17:41:25.787Z,5.45
2022-10-19T17:43:53.521Z,5.05
2022-10-19T17:46:29.270Z,5.63
2022-10-19T17:48:57.137Z,4.18
2022-10-19T17:51:27.375Z,4.30
2022-10-19T17:53:56.587Z,4.40
2022-10-19T17:56:24.108Z,3.70
2022-10-19T17:58:51.194Z,4.05
2022-10-19T18:01:19.715Z,4.38
2022-10-19T18:03:46.835Z,4.00
2022-10-19T18:06:14.976Z,4.53
2022-10-19T18:08:45.695Z,4.38
2022-10-19T18:11:18.988Z,6.82
2022-10-19T18:13:45.719Z,5.05
2022-10-19T18:16:15.662Z,3.78
2022-10-19T18:18:45.920Z,4.32
2022-10-19T18:21:14.640Z,5.13
2022-10-19T18:26:11.518Z,4.70
2022-10-19T18:28:38.282Z,5.20
2022-10-19T18:31:10.903Z,4.75
2022-10-19T18:33:38.111Z,5.13
2022-10-19T18:36:06.608Z,5.43
2022-10-19T18:38:33.465Z,5.20
2022-10-19T18:41:08.867Z,4.80
2022-10-19T18:43:35.536Z,4.38
2022-10-19T18:46:02.208Z,4.38
2022-10-19T18:48:30.064Z,5.20
2022-10-19T18:50:57.967Z,5.10
2022-10-19T18:53:25.043Z,4.93
2022-10-19T18:56:02.480Z,4.80
2022-10-19T18:58:32.256Z,4.63
2022-10-19T19:01:04.131Z,3.97
2022-10-19T19:03:30.971Z,3.90
2022-10-19T19:06:06.359Z,3.85
2022-10-19T19:08:35.380Z,4.38
2022-10-19T19:11:19.608Z,3.53
2022-10-19T19:13:57.918Z,3.28
2022-10-19T19:16:24.984Z,3.78
2022-10-19T19:18:51.708Z,3.75
2022-10-19T19:21:24.286Z,3.53
2022-10-19T19:23:52.148Z,3.33
2022-10-19T19:26:21.327Z,3.20
2022-10-19T19:28:49.204Z,3.10
2022-10-19T19:31:19.075Z,3.65
2022-10-19T19:33:47.480Z,4.00
2022-10-19T19:36:16.135Z,3.65
2022-10-19T19:41:13.452Z,3.15
2022-10-19T19:43:42.385Z,3.50
2022-10-19T19:46:15.086Z,3.58
2022-10-19T19:48:43.691Z,3.10
2022-10-19T19:51:13.301Z,3.65
2022-10-19T19:53:40.807Z,4.50
2022-10-19T19:56:09.385Z,3.45
2022-10-19T19:58:37.537Z,3.70
2022-10-19T20:01:15.717Z,3.35
2022-10-19T20:03:43.547Z,3.90
2022-10-19T20:06:10.933Z,3.80
2022-10-19T20:08:38.489Z,3.58
2022-10-19T20:11:10.961Z,3.25
2022-10-19T20:13:37.863Z,4.13
2022-10-19T20:16:13.452Z,4.13
2022-10-19T20:18:43.326Z,4.97
2022-10-19T20:21:10.138Z,7.68
2022-10-19T20:23:36.934Z,5.57
2022-10-19T20:26:03.611Z,3.75
2022-10-19T20:28:32.964Z,3.50
2022-10-19T20:31:07.930Z,10.23
2022-10-19T20:33:37.546Z,13.25
2022-10-19T20:36:09.968Z,21.45
2022-10-19T20:38:38.549Z,7.22
2022-10-19T20:41:09.734Z,12.80
2022-10-19T20:43:37.485Z,17.40
2022-10-19T20:46:15.716Z,19.43
2022-10-19T20:48:42.402Z,9.32
2022-10-19T20:51:31.936Z,23.48
2022-10-19T20:54:02.254Z,45.25
2022-10-19T20:56:32.723Z,33.58
2022-10-19T20:59:05.602Z,14.43
2022-10-19T21:01:34.597Z,4.10
2022-10-19T21:04:04.606Z,2.90
2022-10-19T21:06:33.289Z,3.30
2022-10-19T21:11:33.023Z,2.83
2022-10-19T21:14:01.994Z,3.50
2022-10-19T21:16:30.237Z,2.83
2022-10-19T21:18:57.155Z,2.55
2022-10-19T21:21:30.260Z,3.30
2022-10-19T21:24:04.824Z,2.90
2022-10-19T21:26:33.306Z,2.75
2022-10-19T21:29:00.231Z,3.25
2022-10-19T21:31:28.422Z,3.28
2022-10-19T21:33:55.427Z,2.92
2022-10-19T21:36:24.952Z,2.95
2022-10-19T21:38:51.946Z,3.15
2022-10-19T21:41:23.795Z,2.95
2022-10-19T21:43:53.281Z,2.80
2022-10-19T21:46:22.067Z,3.05
2022-10-19T21:48:49.679Z,2.80
2022-10-19T21:51:22.452Z,2.90
2022-10-19T21:53:49.530Z,2.80
2022-10-19T21:56:16.691Z,2.92
2022-10-19T21:58:51.120Z,2.65
2022-10-19T22:01:19.400Z,3.05
2022-10-19T22:03:46.471Z,2.70
2022-10-19T22:06:13.857Z,3.03
2022-10-19T22:08:45.046Z,2.92
2022-10-19T22:11:13.455Z,2.63
2022-10-19T22:13:40.452Z,3.50
2022-10-19T22:16:10.444Z,2.90
2022-10-19T22:18:37.351Z,3.20
2022-10-19T22:21:05.599Z,2.65
2022-10-19T22:23:32.279Z,3.08
2022-10-19T22:25:59.816Z,3.10
2022-10-19T22:28:27.569Z,3.13
2022-10-19T22:30:58.896Z,3.63
2022-10-19T22:33:26.115Z,2.90
2022-10-19T22:35:54.957Z,3.28
2022-10-19T22:38:21.610Z,2.90
2022-10-19T22:40:48.244Z,3.10
2022-10-19T22:43:14.878Z,3.33
2022-10-19T22:45:41.522Z,3.35
2022-10-19T22:48:09.828Z,2.85
2022-10-19T22:50:36.584Z,3.45
2022-10-19T22:53:03.310Z,3.03
2022-10-19T22:55:30.124Z,3.20
2022-10-19T22:57:57.173Z,3.72
2022-10-19T23:00:24.063Z,3.65
2022-10-19T23:02:50.786Z,3.30
2022-10-19T23:05:17.775Z,3.38
2022-10-19T23:07:44.569Z,3.72
2022-10-19T23:10:11.475Z,3.05
2022-10-19T23:12:38.163Z,3.53
2022-10-19T23:15:05.667Z,3.08
2022-10-19T23:17:32.535Z,3.85
2022-10-19T23:19:59.395Z,3.38
2022-10-19T23:22:26.103Z,3.65
2022-10-19T23:24:52.795Z,3.08
2022-10-19T23:27:20.656Z,3.22
2022-10-19T23:29:47.448Z,3.47
2022-10-19T23:32:14.108Z,3.80
2022-10-19T23:34:43.144Z,3.53
2022-10-19T23:37:12.546Z,3.20
2022-10-19T23:39:39.235Z,3.22
2022-10-19T23:42:05.852Z,3.47
2022-10-19T23:44:32.477Z,4.47
2022-10-19T23:46:59.167Z,3.70
2022-10-19T23:49:25.842Z,3.03
2022-10-19T23:51:52.484Z,3.70
2022-10-19T23:54:19.127Z,3.40
2022-10-19T23:56:45.804Z,3.22
2022-10-19T23:59:12.450Z,2.95
